Terminal Aerodrome Forecast
Issued by NWS

Home | Current Version | Previous Version | Text Only | Print | Product List | Glossary Off
Versions: 1 2 3 4 5 6 7 8 9 10 11 12 13 14 15 16 17 18 19 20 21 22 23 24 25 26 27 28 29 30 31 32 33 34 35 36

000
FTUS43 KLOT 211120
TAFORD
TAF
KORD 211120Z 2112/2218 19007KT P6SM SCT250
     FM211500 22012G18KT P6SM SCT050
      TEMPO 2117/2119 -TSRA BKN040CB
     FM220200 22011KT P6SM FEW020 BKN120
     FM221400 26008KT P6SM VCTS BKN040CB BKN120=

USA.gov is the U.S. government's official web portal to all federal, state and local government web resources and services.